createdAt,value
2022-10-18T00:02:45.206Z,0.75
2022-10-18T00:05:48.611Z,1.53
2022-10-18T00:08:50.453Z,0.60
2022-10-18T00:11:52.396Z,0.65
2022-10-18T00:14:54.388Z,0.73
2022-10-18T00:17:56.364Z,0.93
2022-10-18T00:21:02.692Z,0.83
2022-10-18T00:24:05.084Z,0.80
2022-10-18T00:27:06.993Z,0.60
2022-10-18T00:30:09.952Z,0.55
2022-10-18T00:33:11.815Z,0.83
2022-10-18T00:36:14.874Z,0.30
2022-10-18T00:39:19.156Z,0.85
2022-10-18T00:42:23.322Z,0.60
2022-10-18T00:45:25.335Z,0.95
2022-10-18T00:48:27.341Z,0.73
2022-10-18T00:51:36.278Z,0.70
2022-10-18T00:54:40.345Z,0.57
2022-10-18T00:57:43.506Z,0.77
2022-10-18T01:00:45.501Z,0.82
2022-10-18T01:03:48.436Z,0.40
2022-10-18T01:07:07.500Z,0.63
2022-10-18T01:10:21.631Z,0.88
2022-10-18T01:13:39.195Z,0.60
2022-10-18T01:16:57.412Z,0.70
2022-10-18T01:20:24.734Z,0.23
2022-10-18T01:24:11.605Z,0.70
2022-10-18T01:27:31.586Z,0.47
2022-10-18T01:30:56.114Z,1.02
2022-10-18T01:37:11.312Z,0.60
2022-10-18T01:40:16.384Z,0.30
2022-10-18T01:43:20.337Z,0.68
2022-10-18T01:46:24.615Z,1.20
2022-10-18T01:49:27.281Z,0.80
2022-10-18T01:52:31.488Z,0.82
2022-10-18T01:55:41.053Z,0.73
2022-10-18T01:59:12.145Z,0.70
2022-10-18T02:02:44.771Z,0.50
2022-10-18T02:06:06.851Z,1.33
2022-10-18T02:09:26.109Z,0.57
2022-10-18T02:12:31.320Z,0.77
2022-10-18T02:15:37.874Z,0.40
2022-10-18T02:18:44.964Z,0.40
2022-10-18T02:21:48.416Z,0.67
2022-10-18T02:24:55.150Z,0.38
2022-10-18T02:27:57.479Z,1.00
2022-10-18T02:31:10.817Z,0.47
2022-10-18T02:34:24.512Z,0.97
2022-10-18T02:37:32.604Z,0.55
2022-10-18T02:40:34.663Z,0.70
2022-10-18T02:43:36.585Z,0.30
2022-10-18T02:46:39.837Z,0.30
2022-10-18T02:49:41.731Z,0.70
2022-10-18T02:52:43.589Z,0.73
2022-10-18T02:55:45.524Z,0.47
2022-10-18T02:58:47.581Z,1.73
2022-10-18T03:01:50.831Z,0.45
2022-10-18T03:04:52.926Z,0.97
2022-10-18T03:07:57.550Z,0.65
2022-10-18T03:10:59.495Z,0.77
2022-10-18T03:14:01.373Z,1.08
2022-10-18T03:17:03.275Z,0.82
2022-10-18T03:20:05.641Z,0.70
2022-10-18T03:23:07.561Z,0.60
2022-10-18T03:26:09.799Z,0.70
2022-10-18T03:29:12.069Z,0.90
2022-10-18T03:32:14.033Z,0.60
2022-10-18T03:35:16.048Z,0.65
2022-10-18T03:38:17.901Z,1.02
2022-10-18T03:41:20.855Z,0.60
2022-10-18T03:44:22.736Z,0.60
2022-10-18T03:47:24.762Z,0.50
2022-10-18T03:50:27.119Z,0.88
2022-10-18T03:53:29.045Z,0.93
2022-10-18T03:56:31.044Z,0.43
2022-10-18T03:59:33.111Z,0.63
2022-10-18T04:02:35.046Z,1.23
2022-10-18T04:05:37.203Z,0.60
2022-10-18T04:08:39.202Z,0.98
2022-10-18T04:11:41.071Z,0.80
2022-10-18T04:14:42.983Z,0.97
2022-10-18T04:17:44.804Z,0.30
2022-10-18T04:20:46.686Z,0.70
2022-10-18T04:23:49.576Z,0.82
2022-10-18T04:26:51.683Z,0.60
2022-10-18T04:29:53.495Z,0.88
2022-10-18T04:32:55.350Z,0.22
2022-10-18T04:35:57.292Z,1.02
2022-10-18T04:38:59.276Z,0.40
2022-10-18T04:42:01.135Z,0.80
2022-10-18T04:45:03.190Z,0.98
2022-10-18T04:48:05.411Z,0.50
2022-10-18T04:51:07.286Z,0.50
2022-10-18T04:54:09.136Z,0.50
2022-10-18T04:57:10.968Z,0.50
2022-10-18T05:00:13.459Z,0.73
2022-10-18T05:03:15.606Z,0.30
2022-10-18T05:06:17.524Z,1.48
2022-10-18T05:09:22.243Z,0.98
2022-10-18T05:12:24.309Z,0.35
2022-10-18T05:15:26.295Z,0.52
2022-10-18T05:18:28.381Z,0.60
2022-10-18T05:21:30.427Z,0.85
2022-10-18T05:24:32.378Z,0.57
2022-10-18T05:27:35.007Z,0.68
2022-10-18T05:30:40.857Z,0.75
2022-10-18T05:33:42.825Z,0.90
2022-10-18T05:36:44.802Z,0.70
2022-10-18T05:39:47.298Z,1.23
2022-10-18T05:42:52.690Z,0.60
2022-10-18T05:45:54.653Z,0.70
2022-10-18T05:48:56.676Z,0.57
2022-10-18T05:51:58.525Z,0.80
2022-10-18T05:55:00.440Z,0.43
2022-10-18T05:58:03.256Z,0.70
2022-10-18T06:01:06.523Z,1.13
2022-10-18T06:04:12.407Z,0.70
2022-10-18T06:07:14.276Z,0.50
2022-10-18T06:10:20.179Z,0.40
2022-10-18T06:13:22.113Z,0.28
2022-10-18T06:16:29.804Z,0.57
2022-10-18T06:19:34.833Z,1.08
2022-10-18T06:22:36.743Z,0.68
2022-10-18T06:25:38.688Z,1.15
2022-10-18T06:28:40.742Z,0.82
2022-10-18T06:31:43.113Z,0.80
2022-10-18T06:34:45.760Z,0.55
2022-10-18T06:37:47.647Z,0.30
2022-10-18T06:40:50.079Z,0.98
2022-10-18T06:43:57.632Z,1.20
2022-10-18T06:46:59.812Z,0.50
2022-10-18T06:50:01.798Z,0.40
2022-10-18T06:53:06.175Z,0.80
2022-10-18T06:56:12.262Z,0.50
2022-10-18T06:59:14.902Z,0.98
2022-10-18T07:02:17.464Z,0.30
2022-10-18T07:05:19.426Z,0.82
2022-10-18T07:08:21.461Z,0.30
2022-10-18T07:11:25.839Z,0.60
2022-10-18T07:14:29.109Z,0.65
2022-10-18T07:17:31.535Z,0.43
2022-10-18T07:20:33.906Z,0.50
2022-10-18T07:23:37.827Z,0.55
2022-10-18T07:26:39.751Z,0.60
2022-10-18T07:29:41.795Z,0.65
2022-10-18T07:32:43.668Z,0.77
2022-10-18T07:35:45.523Z,0.63
2022-10-18T07:38:47.670Z,0.47
2022-10-18T07:41:49.735Z,0.57
2022-10-18T07:44:51.756Z,0.60
2022-10-18T07:47:57.239Z,0.40
2022-10-18T07:51:00.806Z,0.60
2022-10-18T07:54:03.124Z,0.77
2022-10-18T07:57:05.398Z,0.30
2022-10-18T08:00:09.059Z,0.47
2022-10-18T08:03:13.509Z,0.33
2022-10-18T08:06:18.498Z,0.38
2022-10-18T08:09:20.819Z,0.40
2022-10-18T08:12:23.221Z,0.85
2022-10-18T08:15:25.737Z,0.30
2022-10-18T08:18:28.336Z,0.37
2022-10-18T08:21:30.183Z,0.70
2022-10-18T08:24:32.070Z,0.73
2022-10-18T08:27:34.329Z,0.80
2022-10-18T08:30:37.124Z,0.50
2022-10-18T08:33:39.909Z,0.70
2022-10-18T08:36:41.787Z,0.32
2022-10-18T08:39:43.701Z,0.80
2022-10-18T08:42:58.140Z,0.40
2022-10-18T08:46:00.552Z,0.75
2022-10-18T08:49:04.302Z,0.83
2022-10-18T08:52:17.306Z,0.40
2022-10-18T08:55:36.581Z,0.70
2022-10-18T08:58:39.255Z,0.70
2022-10-18T09:02:23.223Z,0.80
2022-10-18T09:05:36.383Z,1.03
2022-10-18T09:08:57.081Z,0.88
2022-10-18T09:12:36.224Z,0.73
2022-10-18T09:16:08.074Z,0.82
2022-10-18T09:19:12.796Z,0.60
2022-10-18T09:22:18.763Z,0.63
2022-10-18T09:25:32.928Z,1.08
2022-10-18T09:29:02.616Z,0.60
2022-10-18T09:32:52.577Z,0.82
2022-10-18T09:36:01.118Z,0.52
2022-10-18T09:39:13.202Z,0.93
2022-10-18T09:42:26.932Z,0.57
2022-10-18T09:45:40.259Z,1.17
2022-10-18T09:48:56.757Z,0.52
2022-10-18T09:52:03.270Z,1.38
2022-10-18T09:55:35.563Z,0.97
2022-10-18T09:58:46.510Z,1.30
2022-10-18T10:01:48.410Z,1.17
2022-10-18T10:04:51.573Z,1.17
2022-10-18T10:07:59.753Z,0.90
2022-10-18T10:11:01.795Z,0.97
2022-10-18T10:14:12.699Z,1.15
2022-10-18T10:17:30.246Z,1.05
2022-10-18T10:20:44.309Z,1.00
2022-10-18T10:23:53.140Z,1.15
2022-10-18T10:27:05.910Z,0.67
2022-10-18T10:30:25.389Z,1.45
2022-10-18T10:33:38.743Z,1.00
2022-10-18T10:36:48.747Z,1.20
2022-10-18T10:40:26.471Z,1.05
2022-10-18T10:43:39.107Z,0.53
2022-10-18T10:46:43.576Z,1.20
2022-10-18T10:49:48.892Z,0.93
2022-10-18T10:52:51.110Z,1.20
2022-10-18T10:55:56.212Z,0.98
2022-10-18T10:59:09.859Z,0.90
2022-10-18T11:02:15.291Z,1.05
2022-10-18T11:05:26.468Z,0.60
2022-10-18T11:08:41.111Z,0.90
2022-10-18T11:11:53.392Z,1.40
2022-10-18T11:15:37.273Z,1.10
2022-10-18T11:18:41.003Z,0.60
2022-10-18T11:21:43.436Z,1.00
2022-10-18T11:24:45.381Z,0.50
2022-10-18T11:28:16.835Z,0.47
2022-10-18T11:31:33.999Z,0.70
2022-10-18T11:35:02.249Z,0.63
2022-10-18T11:38:04.194Z,0.65
2022-10-18T11:41:27.771Z,0.75
2022-10-18T11:44:59.421Z,0.85
2022-10-18T11:48:23.228Z,0.90
2022-10-18T11:52:03.273Z,0.70
2022-10-18T11:55:17.055Z,0.80
2022-10-18T11:58:47.521Z,0.73
2022-10-18T12:02:03.449Z,0.98
2022-10-18T12:08:37.649Z,0.70
2022-10-18T12:11:47.421Z,0.80
2022-10-18T12:15:07.027Z,0.90
2022-10-18T12:18:23.366Z,0.85
2022-10-18T12:21:29.350Z,1.00
2022-10-18T12:24:33.372Z,0.90
2022-10-18T12:31:09.238Z,0.77
2022-10-18T12:34:24.190Z,0.63
2022-10-18T12:37:50.099Z,0.40
2022-10-18T12:40:54.502Z,1.00
2022-10-18T12:44:06.443Z,0.70
2022-10-18T12:47:23.058Z,0.80
2022-10-18T12:50:37.966Z,0.80
2022-10-18T12:53:42.589Z,0.50
2022-10-18T12:56:47.137Z,0.50
2022-10-18T12:59:49.642Z,0.75
2022-10-18T13:03:17.979Z,0.70
2022-10-18T13:06:20.158Z,0.73
2022-10-18T13:09:22.047Z,1.43
2022-10-18T13:12:23.857Z,1.15
2022-10-18T13:15:48.342Z,1.30
2022-10-18T13:18:58.296Z,0.70
2022-10-18T13:22:25.132Z,0.50
2022-10-18T13:25:46.108Z,1.23
2022-10-18T13:28:54.199Z,0.50
2022-10-18T13:32:19.323Z,0.65
2022-10-18T13:35:44.928Z,1.08
2022-10-18T13:39:02.075Z,0.90
2022-10-18T13:42:04.061Z,0.83
2022-10-18T13:45:31.468Z,1.02
2022-10-18T13:48:33.354Z,0.77
2022-10-18T13:51:44.832Z,0.55
2022-10-18T13:55:17.624Z,0.57
2022-10-18T13:58:48.893Z,0.30
2022-10-18T14:02:50.085Z,0.80
2022-10-18T14:05:49.078Z,0.20
2022-10-18T14:09:26.337Z,0.22
2022-10-18T14:12:44.048Z,1.13
2022-10-18T14:15:50.384Z,0.30
2022-10-18T14:19:05.231Z,0.73
2022-10-18T14:22:28.136Z,0.45
2022-10-18T14:25:35.793Z,0.77
2022-10-18T14:28:58.631Z,0.43
2022-10-18T14:31:59.709Z,0.40
2022-10-18T14:35:30.642Z,0.70
2022-10-18T14:38:24.460Z,0.55
2022-10-18T14:41:38.592Z,1.08
2022-10-18T14:44:40.570Z,0.70
2022-10-18T14:47:45.579Z,0.70
2022-10-18T14:50:59.227Z,0.60
2022-10-18T14:54:01.571Z,0.98
2022-10-18T14:57:05.650Z,0.60
2022-10-18T15:00:09.701Z,0.40
2022-10-18T15:03:15.792Z,0.53
2022-10-18T15:06:20.070Z,0.77
2022-10-18T15:09:24.087Z,0.70
2022-10-18T15:12:29.621Z,0.60
2022-10-18T15:15:35.174Z,0.45
2022-10-18T15:18:37.536Z,0.70
2022-10-18T15:25:33.881Z,0.88
2022-10-18T15:28:51.051Z,0.85
2022-10-18T15:31:55.153Z,0.80
2022-10-18T15:35:20.973Z,1.37
2022-10-18T15:38:28.339Z,1.15
2022-10-18T15:41:51.304Z,1.42
2022-10-18T15:44:53.479Z,1.77
2022-10-18T15:48:10.358Z,1.58
2022-10-18T15:51:47.885Z,0.83
2022-10-18T15:54:49.886Z,1.55
2022-10-18T15:57:51.962Z,1.92
2022-10-18T16:00:57.824Z,1.60
2022-10-18T16:04:01.004Z,1.52
2022-10-18T16:07:03.160Z,1.23
2022-10-18T16:10:13.246Z,1.35
2022-10-18T16:13:15.213Z,1.25
2022-10-18T16:16:21.851Z,0.77
2022-10-18T16:19:24.074Z,1.95
2022-10-18T16:22:25.956Z,2.33
2022-10-18T16:25:27.936Z,2.97
2022-10-18T16:28:31.870Z,2.85
2022-10-18T16:31:34.824Z,2.78
2022-10-18T16:34:36.713Z,3.10
2022-10-18T16:37:39.835Z,2.57
2022-10-18T16:40:41.848Z,2.75
2022-10-18T16:43:46.323Z,3.35
2022-10-18T16:46:52.401Z,3.33
2022-10-18T16:49:55.926Z,2.35
2022-10-18T16:52:57.804Z,2.20
2022-10-18T16:56:02.264Z,2.50
2022-10-18T16:59:04.254Z,2.90
2022-10-18T17:02:09.233Z,2.75
2022-10-18T17:05:11.279Z,3.28
2022-10-18T17:08:25.623Z,2.07
2022-10-18T17:11:28.674Z,2.05
2022-10-18T17:14:30.691Z,1.58
2022-10-18T17:17:32.988Z,0.73
2022-10-18T17:20:36.028Z,1.20
2022-10-18T17:23:38.972Z,0.93
2022-10-18T17:26:40.920Z,1.00
2022-10-18T17:29:43.135Z,0.70
2022-10-18T17:32:45.097Z,0.90
2022-10-18T17:35:47.969Z,0.88
2022-10-18T17:38:52.523Z,0.57
2022-10-18T17:41:55.622Z,0.93
2022-10-18T17:44:57.901Z,1.70
2022-10-18T17:47:59.858Z,1.85
2022-10-18T17:51:12.265Z,1.15
2022-10-18T17:54:14.195Z,0.93
2022-10-18T17:57:16.279Z,1.10
2022-10-18T18:00:19.020Z,1.25
2022-10-18T18:03:21.512Z,1.08
2022-10-18T18:06:33.887Z,1.20
2022-10-18T18:09:35.715Z,0.67
2022-10-18T18:12:37.743Z,2.53
2022-10-18T18:15:39.568Z,1.50
2022-10-18T18:18:41.895Z,0.90
2022-10-18T18:21:43.887Z,0.93
2022-10-18T18:24:45.883Z,0.67
2022-10-18T18:27:47.817Z,0.57
2022-10-18T18:30:52.295Z,0.50
2022-10-18T18:33:56.828Z,1.35
2022-10-18T18:36:58.734Z,1.02
2022-10-18T18:40:00.645Z,1.37
2022-10-18T18:43:19.035Z,0.40
2022-10-18T18:46:26.220Z,0.82
2022-10-18T18:49:28.172Z,1.25
2022-10-18T18:52:30.557Z,1.35
2022-10-18T18:55:32.780Z,0.63
2022-10-18T18:58:36.817Z,0.60
2022-10-18T19:01:38.787Z,1.50
2022-10-18T19:04:41.432Z,0.60
2022-10-18T19:07:43.408Z,1.20
2022-10-18T19:10:49.080Z,0.70
2022-10-18T19:13:51.079Z,1.00
2022-10-18T19:16:54.798Z,0.90
2022-10-18T19:19:58.880Z,0.85
2022-10-18T19:23:00.839Z,0.60
2022-10-18T19:26:13.371Z,1.00
2022-10-18T19:29:21.457Z,0.80
2022-10-18T19:32:23.355Z,1.08
2022-10-18T19:35:25.311Z,1.08
2022-10-18T19:38:27.601Z,0.90
2022-10-18T19:41:29.694Z,1.27
2022-10-18T19:44:34.131Z,0.90
2022-10-18T19:47:38.376Z,0.60
2022-10-18T19:50:40.663Z,0.80
2022-10-18T19:53:42.774Z,0.60
2022-10-18T19:56:45.073Z,1.02
2022-10-18T19:59:47.489Z,1.13
2022-10-18T20:02:49.423Z,1.38
2022-10-18T20:05:56.460Z,0.77
2022-10-18T20:08:58.812Z,0.40
2022-10-18T20:12:00.808Z,1.10
2022-10-18T20:15:04.657Z,0.52
2022-10-18T20:18:06.897Z,0.38
2022-10-18T20:21:11.547Z,0.97
2022-10-18T20:24:13.516Z,0.80
2022-10-18T20:27:15.440Z,1.05
2022-10-18T20:30:25.886Z,1.02
2022-10-18T20:33:29.032Z,0.57
2022-10-18T20:36:31.937Z,0.73
2022-10-18T20:39:35.192Z,0.73
2022-10-18T20:42:37.346Z,0.57
2022-10-18T20:45:39.366Z,0.57
2022-10-18T20:48:41.329Z,0.22
2022-10-18T20:51:43.766Z,0.37
2022-10-18T20:54:45.618Z,0.57
2022-10-18T20:57:47.935Z,0.50
2022-10-18T21:00:51.139Z,0.47
2022-10-18T21:03:55.537Z,0.57
2022-10-18T21:06:57.441Z,0.60
2022-10-18T21:09:59.386Z,0.35
2022-10-18T21:13:01.350Z,0.35
2022-10-18T21:16:05.362Z,0.40
2022-10-18T21:19:13.390Z,0.28
2022-10-18T21:22:17.424Z,0.60
2022-10-18T21:25:19.309Z,0.55
2022-10-18T21:28:21.245Z,0.70
2022-10-18T21:31:26.429Z,0.80
2022-10-18T21:34:29.608Z,0.90
2022-10-18T21:37:31.557Z,0.57
2022-10-18T21:40:36.119Z,0.95
2022-10-18T21:43:43.704Z,0.50
2022-10-18T21:46:46.763Z,0.57
2022-10-18T21:49:48.819Z,0.30
2022-10-18T21:52:50.828Z,0.40
2022-10-18T21:55:52.718Z,0.85
2022-10-18T21:58:55.762Z,0.32
2022-10-18T22:01:57.740Z,0.87
2022-10-18T22:04:59.578Z,0.77
2022-10-18T22:08:01.498Z,1.20
2022-10-18T22:11:03.658Z,1.05
2022-10-18T22:14:05.583Z,1.27
2022-10-18T22:17:07.466Z,1.05
2022-10-18T22:20:10.576Z,1.17
2022-10-18T22:23:12.997Z,1.63
2022-10-18T22:26:22.766Z,1.40
2022-10-18T22:29:24.594Z,0.60
2022-10-18T22:32:26.434Z,0.65
2022-10-18T22:35:29.251Z,0.82
2022-10-18T22:38:35.028Z,0.50
2022-10-18T22:41:37.222Z,0.70
2022-10-18T22:44:39.082Z,0.82
2022-10-18T22:47:41.020Z,0.30
2022-10-18T22:50:43.010Z,0.80
2022-10-18T22:53:45.369Z,1.15
2022-10-18T22:56:47.243Z,1.02
2022-10-18T22:59:49.249Z,0.45
2022-10-18T23:02:51.390Z,0.60
2022-10-18T23:05:53.302Z,0.60
2022-10-18T23:08:57.531Z,0.90
2022-10-18T23:11:59.400Z,1.05
2022-10-18T23:15:01.372Z,0.60
2022-10-18T23:18:03.379Z,0.37
2022-10-18T23:21:14.679Z,0.47
2022-10-18T23:24:16.635Z,0.55
2022-10-18T23:27:18.494Z,0.73
2022-10-18T23:30:23.141Z,0.97
2022-10-18T23:33:25.083Z,0.47
2022-10-18T23:36:28.071Z,0.93
2022-10-18T23:39:30.089Z,1.33
2022-10-18T23:42:32.291Z,0.88
2022-10-18T23:45:34.253Z,0.83
2022-10-18T23:48:37.145Z,0.75
2022-10-18T23:51:38.999Z,1.17
2022-10-18T23:54:40.952Z,1.50
2022-10-18T23:57:42.868Z,0.77
